sensor_id;sensor_type;location;lat;lon;timestamp;P1;durP1;ratioP1;P2;durP2;ratioP2
4575;SDS011;2300;51.874;8.430;2023-02-24T00:00:56;38.03;;;8.77;;
4575;SDS011;2300;51.874;8.430;2023-02-24T00:03:26;38.57;;;9.67;;
4575;SDS011;2300;51.874;8.430;2023-02-24T00:05:53;32.43;;;9.40;;
4575;SDS011;2300;51.874;8.430;2023-02-24T00:08:19;37.83;;;9.73;;
4575;SDS011;2300;51.874;8.430;2023-02-24T00:10:46;41.57;;;8.90;;
4575;SDS011;2300;51.874;8.430;2023-02-24T00:13:13;40.97;;;9.23;;
4575;SDS011;2300;51.874;8.430;2023-02-24T00:15:46;28.03;;;8.17;;
4575;SDS011;2300;51.874;8.430;2023-02-24T00:18:24;26.97;;;7.90;;
4575;SDS011;2300;51.874;8.430;2023-02-24T00:20:51;38.00;;;8.80;;
4575;SDS011;2300;51.874;8.430;2023-02-24T00:23:20;37.80;;;8.17;;
4575;SDS011;2300;51.874;8.430;2023-02-24T00:25:47;31.87;;;8.03;;
4575;SDS011;2300;51.874;8.430;2023-02-24T00:28:14;38.90;;;8.20;;
4575;SDS011;2300;51.874;8.430;2023-02-24T00:30:40;35.70;;;8.17;;
4575;SDS011;2300;51.874;8.430;2023-02-24T00:33:09;38.87;;;8.83;;
4575;SDS011;2300;51.874;8.430;2023-02-24T00:35:36;41.13;;;8.57;;
4575;SDS011;2300;51.874;8.430;2023-02-24T00:38:02;36.67;;;8.93;;
4575;SDS011;2300;51.874;8.430;2023-02-24T00:40:29;32.53;;;8.87;;
4575;SDS011;2300;51.874;8.430;2023-02-24T00:42:55;37.20;;;9.33;;
4575;SDS011;2300;51.874;8.430;2023-02-24T00:45:22;35.67;;;9.17;;
4575;SDS011;2300;51.874;8.430;2023-02-24T00:47:48;34.67;;;9.17;;
4575;SDS011;2300;51.874;8.430;2023-02-24T00:50:16;30.00;;;8.60;;
4575;SDS011;2300;51.874;8.430;2023-02-24T00:52:42;37.40;;;9.50;;
4575;SDS011;2300;51.874;8.430;2023-02-24T00:55:09;41.33;;;10.33;;
4575;SDS011;2300;51.874;8.430;2023-02-24T00:57:40;30.97;;;8.83;;
4575;SDS011;2300;51.874;8.430;2023-02-24T01:00:07;43.60;;;10.57;;
4575;SDS011;2300;51.874;8.430;2023-02-24T01:02:38;39.03;;;10.57;;
4575;SDS011;2300;51.874;8.430;2023-02-24T01:05:04;42.97;;;11.57;;
4575;SDS011;2300;51.874;8.430;2023-02-24T01:07:34;41.53;;;9.23;;
4575;SDS011;2300;51.874;8.430;2023-02-24T01:10:01;45.00;;;9.73;;
4575;SDS011;2300;51.874;8.430;2023-02-24T01:12:29;36.80;;;9.13;;
4575;SDS011;2300;51.874;8.430;2023-02-24T01:15:13;39.10;;;9.07;;
4575;SDS011;2300;51.874;8.430;2023-02-24T01:17:43;37.10;;;8.57;;
4575;SDS011;2300;51.874;8.430;2023-02-24T01:20:11;37.70;;;8.97;;
4575;SDS011;2300;51.874;8.430;2023-02-24T01:22:43;39.17;;;8.67;;
4575;SDS011;2300;51.874;8.430;2023-02-24T01:25:11;35.33;;;7.87;;
4575;SDS011;2300;51.874;8.430;2023-02-24T01:27:37;29.23;;;8.13;;
4575;SDS011;2300;51.874;8.430;2023-02-24T01:30:05;39.27;;;8.30;;
4575;SDS011;2300;51.874;8.430;2023-02-24T01:32:37;33.13;;;7.57;;
4575;SDS011;2300;51.874;8.430;2023-02-24T01:35:04;33.07;;;7.63;;
4575;SDS011;2300;51.874;8.430;2023-02-24T01:37:31;31.33;;;6.43;;
4575;SDS011;2300;51.874;8.430;2023-02-24T01:39:59;40.43;;;7.23;;
4575;SDS011;2300;51.874;8.430;2023-02-24T01:42:31;35.60;;;6.63;;
4575;SDS011;2300;51.874;8.430;2023-02-24T01:45:05;37.50;;;7.57;;
4575;SDS011;2300;51.874;8.430;2023-02-24T01:47:38;34.13;;;7.20;;
4575;SDS011;2300;51.874;8.430;2023-02-24T01:50:06;30.73;;;7.53;;
4575;SDS011;2300;51.874;8.430;2023-02-24T01:52:38;34.93;;;8.43;;
4575;SDS011;2300;51.874;8.430;2023-02-24T01:55:10;33.60;;;8.17;;
4575;SDS011;2300;51.874;8.430;2023-02-24T01:57:40;32.97;;;7.77;;
4575;SDS011;2300;51.874;8.430;2023-02-24T02:00:10;27.90;;;7.83;;
4575;SDS011;2300;51.874;8.430;2023-02-24T02:02:55;37.27;;;8.40;;
4575;SDS011;2300;51.874;8.430;2023-02-24T02:05:24;38.97;;;8.27;;
4575;SDS011;2300;51.874;8.430;2023-02-24T02:07:51;31.13;;;8.40;;
4575;SDS011;2300;51.874;8.430;2023-02-24T02:10:20;33.00;;;7.57;;
4575;SDS011;2300;51.874;8.430;2023-02-24T02:12:47;35.90;;;7.70;;
4575;SDS011;2300;51.874;8.430;2023-02-24T02:15:16;34.60;;;8.10;;
4575;SDS011;2300;51.874;8.430;2023-02-24T02:17:47;34.10;;;7.57;;
4575;SDS011;2300;51.874;8.430;2023-02-24T02:23:42;33.27;;;7.73;;
4575;SDS011;2300;51.874;8.430;2023-02-24T02:26:28;24.93;;;7.43;;
4575;SDS011;2300;51.874;8.430;2023-02-24T02:32:16;34.07;;;7.97;;
4575;SDS011;2300;51.874;8.430;2023-02-24T02:35:03;36.20;;;8.30;;
4575;SDS011;2300;51.874;8.430;2023-02-24T02:37:38;38.17;;;8.03;;
4575;SDS011;2300;51.874;8.430;2023-02-24T02:40:11;35.93;;;8.03;;
4575;SDS011;2300;51.874;8.430;2023-02-24T02:42:48;38.83;;;8.13;;
4575;SDS011;2300;51.874;8.430;2023-02-24T02:45:23;42.80;;;8.87;;
4575;SDS011;2300;51.874;8.430;2023-02-24T02:47:54;34.83;;;8.00;;
4575;SDS011;2300;51.874;8.430;2023-02-24T02:50:28;35.17;;;8.17;;
4575;SDS011;2300;51.874;8.430;2023-02-24T02:53:00;29.90;;;8.13;;
4575;SDS011;2300;51.874;8.430;2023-02-24T02:55:32;26.80;;;7.63;;
4575;SDS011;2300;51.874;8.430;2023-02-24T02:58:03;34.23;;;7.87;;
4575;SDS011;2300;51.874;8.430;2023-02-24T03:00:35;35.50;;;8.53;;
4575;SDS011;2300;51.874;8.430;2023-02-24T03:03:06;33.73;;;7.33;;
4575;SDS011;2300;51.874;8.430;2023-02-24T03:05:41;26.10;;;7.17;;
4575;SDS011;2300;51.874;8.430;2023-02-24T03:08:12;30.80;;;6.70;;
4575;SDS011;2300;51.874;8.430;2023-02-24T03:10:43;25.90;;;6.70;;
4575;SDS011;2300;51.874;8.430;2023-02-24T03:13:14;22.17;;;6.27;;
4575;SDS011;2300;51.874;8.430;2023-02-24T03:15:44;26.17;;;6.10;;
4575;SDS011;2300;51.874;8.430;2023-02-24T03:18:13;33.37;;;6.57;;
4575;SDS011;2300;51.874;8.430;2023-02-24T03:20:46;23.77;;;5.77;;
4575;SDS011;2300;51.874;8.430;2023-02-24T03:23:17;28.43;;;6.33;;
4575;SDS011;2300;51.874;8.430;2023-02-24T03:25:47;28.20;;;6.23;;
4575;SDS011;2300;51.874;8.430;2023-02-24T03:28:20;21.13;;;6.10;;
4575;SDS011;2300;51.874;8.430;2023-02-24T03:30:55;25.63;;;5.90;;
4575;SDS011;2300;51.874;8.430;2023-02-24T03:33:29;25.43;;;5.60;;
4575;SDS011;2300;51.874;8.430;2023-02-24T03:36:01;24.30;;;5.80;;
4575;SDS011;2300;51.874;8.430;2023-02-24T03:38:30;26.97;;;6.00;;
4575;SDS011;2300;51.874;8.430;2023-02-24T03:40:59;24.10;;;5.67;;
4575;SDS011;2300;51.874;8.430;2023-02-24T03:43:27;19.37;;;5.93;;
4575;SDS011;2300;51.874;8.430;2023-02-24T03:45:56;21.03;;;5.70;;
4575;SDS011;2300;51.874;8.430;2023-02-24T03:48:25;23.93;;;5.17;;
4575;SDS011;2300;51.874;8.430;2023-02-24T03:50:53;25.80;;;5.93;;
4575;SDS011;2300;51.874;8.430;2023-02-24T03:53:25;24.77;;;5.87;;
4575;SDS011;2300;51.874;8.430;2023-02-24T03:56:04;24.63;;;6.27;;
4575;SDS011;2300;51.874;8.430;2023-02-24T03:58:43;22.83;;;5.53;;
4575;SDS011;2300;51.874;8.430;2023-02-24T04:01:21;18.77;;;5.23;;
4575;SDS011;2300;51.874;8.430;2023-02-24T04:03:59;22.43;;;5.80;;
4575;SDS011;2300;51.874;8.430;2023-02-24T04:06:30;20.73;;;5.53;;
4575;SDS011;2300;51.874;8.430;2023-02-24T04:09:06;26.23;;;5.93;;
4575;SDS011;2300;51.874;8.430;2023-02-24T04:11:42;20.87;;;6.00;;
4575;SDS011;2300;51.874;8.430;2023-02-24T04:14:15;18.93;;;6.03;;
4575;SDS011;2300;51.874;8.430;2023-02-24T04:16:50;23.63;;;6.00;;
4575;SDS011;2300;51.874;8.430;2023-02-24T04:19:25;18.00;;;5.90;;
4575;SDS011;2300;51.874;8.430;2023-02-24T04:21:56;27.93;;;5.87;;
4575;SDS011;2300;51.874;8.430;2023-02-24T04:24:25;21.30;;;5.60;;
4575;SDS011;2300;51.874;8.430;2023-02-24T04:26:53;19.00;;;5.47;;
4575;SDS011;2300;51.874;8.430;2023-02-24T04:29:24;21.70;;;5.87;;
4575;SDS011;2300;51.874;8.430;2023-02-24T04:31:53;33.07;;;5.87;;
4575;SDS011;2300;51.874;8.430;2023-02-24T04:34:25;23.27;;;5.80;;
4575;SDS011;2300;51.874;8.430;2023-02-24T04:36:56;22.27;;;5.40;;
4575;SDS011;2300;51.874;8.430;2023-02-24T04:39:27;25.83;;;5.73;;
4575;SDS011;2300;51.874;8.430;2023-02-24T04:41:55;31.67;;;6.17;;
4575;SDS011;2300;51.874;8.430;2023-02-24T04:44:22;29.07;;;5.60;;
4575;SDS011;2300;51.874;8.430;2023-02-24T04:46:49;18.33;;;5.53;;
4575;SDS011;2300;51.874;8.430;2023-02-24T04:49:16;20.93;;;5.57;;
4575;SDS011;2300;51.874;8.430;2023-02-24T04:51:43;22.70;;;5.63;;
4575;SDS011;2300;51.874;8.430;2023-02-24T04:54:10;21.63;;;5.67;;
4575;SDS011;2300;51.874;8.430;2023-02-24T04:56:42;20.77;;;5.93;;
4575;SDS011;2300;51.874;8.430;2023-02-24T04:59:12;23.43;;;5.90;;
4575;SDS011;2300;51.874;8.430;2023-02-24T05:01:39;21.37;;;5.57;;
4575;SDS011;2300;51.874;8.430;2023-02-24T05:04:08;23.97;;;5.20;;
4575;SDS011;2300;51.874;8.430;2023-02-24T05:06:36;22.10;;;6.30;;
4575;SDS011;2300;51.874;8.430;2023-02-24T05:09:04;20.70;;;5.17;;
4575;SDS011;2300;51.874;8.430;2023-02-24T05:11:38;20.83;;;5.80;;
4575;SDS011;2300;51.874;8.430;2023-02-24T05:14:07;15.10;;;5.07;;
4575;SDS011;2300;51.874;8.430;2023-02-24T05:16:38;22.53;;;5.40;;
4575;SDS011;2300;51.874;8.430;2023-02-24T05:19:06;21.73;;;5.43;;
4575;SDS011;2300;51.874;8.430;2023-02-24T05:21:51;19.10;;;4.67;;
4575;SDS011;2300;51.874;8.430;2023-02-24T05:24:17;24.50;;;5.50;;
4575;SDS011;2300;51.874;8.430;2023-02-24T05:26:43;17.67;;;5.23;;
4575;SDS011;2300;51.874;8.430;2023-02-24T05:29:12;17.43;;;5.37;;
4575;SDS011;2300;51.874;8.430;2023-02-24T05:31:38;17.90;;;5.33;;
4575;SDS011;2300;51.874;8.430;2023-02-24T05:34:06;18.70;;;5.00;;
4575;SDS011;2300;51.874;8.430;2023-02-24T05:36:34;21.43;;;5.17;;
4575;SDS011;2300;51.874;8.430;2023-02-24T05:39:03;18.17;;;4.93;;
4575;SDS011;2300;51.874;8.430;2023-02-24T05:41:32;20.93;;;5.03;;
4575;SDS011;2300;51.874;8.430;2023-02-24T05:44:03;13.90;;;5.17;;
4575;SDS011;2300;51.874;8.430;2023-02-24T05:46:34;18.80;;;4.80;;
4575;SDS011;2300;51.874;8.430;2023-02-24T05:49:03;22.33;;;5.13;;
4575;SDS011;2300;51.874;8.430;2023-02-24T05:51:33;16.60;;;5.40;;
4575;SDS011;2300;51.874;8.430;2023-02-24T05:54:00;20.50;;;5.30;;
4575;SDS011;2300;51.874;8.430;2023-02-24T05:56:29;18.30;;;5.03;;
4575;SDS011;2300;51.874;8.430;2023-02-24T05:58:57;19.50;;;5.40;;
4575;SDS011;2300;51.874;8.430;2023-02-24T06:01:26;19.53;;;5.07;;
4575;SDS011;2300;51.874;8.430;2023-02-24T06:03:57;20.47;;;5.40;;
4575;SDS011;2300;51.874;8.430;2023-02-24T06:06:29;20.43;;;5.23;;
4575;SDS011;2300;51.874;8.430;2023-02-24T06:08:59;15.30;;;5.10;;
4575;SDS011;2300;51.874;8.430;2023-02-24T06:11:26;22.57;;;5.50;;
4575;SDS011;2300;51.874;8.430;2023-02-24T06:13:52;15.50;;;5.23;;
4575;SDS011;2300;51.874;8.430;2023-02-24T06:16:22;18.70;;;5.63;;
4575;SDS011;2300;51.874;8.430;2023-02-24T06:18:50;17.97;;;5.67;;
4575;SDS011;2300;51.874;8.430;2023-02-24T06:21:18;18.57;;;5.20;;
4575;SDS011;2300;51.874;8.430;2023-02-24T06:23:44;18.97;;;5.10;;
4575;SDS011;2300;51.874;8.430;2023-02-24T06:26:11;20.03;;;5.97;;
4575;SDS011;2300;51.874;8.430;2023-02-24T06:28:43;14.40;;;4.90;;
4575;SDS011;2300;51.874;8.430;2023-02-24T06:31:12;20.63;;;5.50;;
4575;SDS011;2300;51.874;8.430;2023-02-24T06:33:39;21.13;;;4.80;;
4575;SDS011;2300;51.874;8.430;2023-02-24T06:36:06;14.23;;;4.80;;
4575;SDS011;2300;51.874;8.430;2023-02-24T06:38:35;18.83;;;5.10;;
4575;SDS011;2300;51.874;8.430;2023-02-24T06:41:04;16.67;;;4.60;;
4575;SDS011;2300;51.874;8.430;2023-02-24T06:43:35;17.40;;;6.47;;
4575;SDS011;2300;51.874;8.430;2023-02-24T06:46:02;18.77;;;5.63;;
4575;SDS011;2300;51.874;8.430;2023-02-24T06:48:29;13.13;;;4.33;;
4575;SDS011;2300;51.874;8.430;2023-02-24T06:50:57;18.00;;;4.63;;
4575;SDS011;2300;51.874;8.430;2023-02-24T06:53:24;19.50;;;4.10;;
4575;SDS011;2300;51.874;8.430;2023-02-24T06:55:52;13.17;;;4.40;;
4575;SDS011;2300;51.874;8.430;2023-02-24T06:58:19;16.97;;;5.13;;
4575;SDS011;2300;51.874;8.430;2023-02-24T07:00:48;26.33;;;10.87;;
4575;SDS011;2300;51.874;8.430;2023-02-24T07:03:22;14.90;;;4.10;;
4575;SDS011;2300;51.874;8.430;2023-02-24T07:06:03;14.43;;;4.80;;
4575;SDS011;2300;51.874;8.430;2023-02-24T07:08:44;17.27;;;4.30;;
4575;SDS011;2300;51.874;8.430;2023-02-24T07:11:12;13.60;;;5.43;;
4575;SDS011;2300;51.874;8.430;2023-02-24T07:13:41;12.47;;;4.40;;
4575;SDS011;2300;51.874;8.430;2023-02-24T07:16:08;15.33;;;4.60;;
4575;SDS011;2300;51.874;8.430;2023-02-24T07:18:36;14.53;;;3.80;;
4575;SDS011;2300;51.874;8.430;2023-02-24T07:21:05;13.70;;;4.00;;
4575;SDS011;2300;51.874;8.430;2023-02-24T07:23:35;12.33;;;3.90;;
4575;SDS011;2300;51.874;8.430;2023-02-24T07:26:05;13.93;;;3.70;;
4575;SDS011;2300;51.874;8.430;2023-02-24T07:28:35;10.97;;;3.87;;
4575;SDS011;2300;51.874;8.430;2023-02-24T07:31:04;11.00;;;4.30;;
4575;SDS011;2300;51.874;8.430;2023-02-24T07:33:32;7.80;;;3.63;;
4575;SDS011;2300;51.874;8.430;2023-02-24T07:36:00;17.50;;;4.30;;
4575;SDS011;2300;51.874;8.430;2023-02-24T07:38:32;9.50;;;3.73;;
4575;SDS011;2300;51.874;8.430;2023-02-24T07:41:00;12.80;;;3.60;;
4575;SDS011;2300;51.874;8.430;2023-02-24T07:43:26;14.80;;;4.30;;
4575;SDS011;2300;51.874;8.430;2023-02-24T07:45:54;13.47;;;4.23;;
4575;SDS011;2300;51.874;8.430;2023-02-24T07:48:22;13.80;;;3.97;;
4575;SDS011;2300;51.874;8.430;2023-02-24T07:50:49;13.83;;;3.80;;
4575;SDS011;2300;51.874;8.430;2023-02-24T07:53:17;15.90;;;3.67;;
4575;SDS011;2300;51.874;8.430;2023-02-24T07:55:43;14.10;;;4.40;;
4575;SDS011;2300;51.874;8.430;2023-02-24T07:58:10;17.40;;;4.57;;
4575;SDS011;2300;51.874;8.430;2023-02-24T08:00:36;16.10;;;4.30;;
4575;SDS011;2300;51.874;8.430;2023-02-24T08:03:24;14.53;;;4.43;;
4575;SDS011;2300;51.874;8.430;2023-02-24T08:05:54;15.23;;;4.03;;
4575;SDS011;2300;51.874;8.430;2023-02-24T08:08:24;10.70;;;4.27;;
4575;SDS011;2300;51.874;8.430;2023-02-24T08:10:50;12.20;;;4.17;;
4575;SDS011;2300;51.874;8.430;2023-02-24T08:13:25;8.77;;;4.20;;
4575;SDS011;2300;51.874;8.430;2023-02-24T08:15:53;11.60;;;4.13;;
4575;SDS011;2300;51.874;8.430;2023-02-24T08:18:21;16.33;;;4.50;;
4575;SDS011;2300;51.874;8.430;2023-02-24T08:20:49;11.60;;;3.97;;
4575;SDS011;2300;51.874;8.430;2023-02-24T08:23:17;17.80;;;4.53;;
4575;SDS011;2300;51.874;8.430;2023-02-24T08:25:43;10.57;;;4.30;;
4575;SDS011;2300;51.874;8.430;2023-02-24T08:28:10;13.53;;;4.43;;
4575;SDS011;2300;51.874;8.430;2023-02-24T08:30:38;15.60;;;4.67;;
4575;SDS011;2300;51.874;8.430;2023-02-24T08:33:09;14.87;;;4.33;;
4575;SDS011;2300;51.874;8.430;2023-02-24T08:35:39;13.53;;;4.50;;
4575;SDS011;2300;51.874;8.430;2023-02-24T08:38:11;19.67;;;5.00;;
4575;SDS011;2300;51.874;8.430;2023-02-24T08:40:40;15.70;;;4.20;;
4575;SDS011;2300;51.874;8.430;2023-02-24T08:43:17;12.13;;;4.83;;
4575;SDS011;2300;51.874;8.430;2023-02-24T08:45:55;15.60;;;4.30;;
4575;SDS011;2300;51.874;8.430;2023-02-24T08:48:25;11.20;;;4.17;;
4575;SDS011;2300;51.874;8.430;2023-02-24T08:51:02;15.20;;;4.43;;
4575;SDS011;2300;51.874;8.430;2023-02-24T08:53:33;11.40;;;4.20;;
4575;SDS011;2300;51.874;8.430;2023-02-24T08:56:04;14.23;;;4.17;;
4575;SDS011;2300;51.874;8.430;2023-02-24T08:58:35;14.47;;;4.30;;
4575;SDS011;2300;51.874;8.430;2023-02-24T09:01:05;15.60;;;4.37;;
4575;SDS011;2300;51.874;8.430;2023-02-24T09:03:43;10.07;;;4.53;;
4575;SDS011;2300;51.874;8.430;2023-02-24T09:06:15;14.43;;;4.30;;
4575;SDS011;2300;51.874;8.430;2023-02-24T09:08:51;15.20;;;4.37;;
4575;SDS011;2300;51.874;8.430;2023-02-24T09:11:41;11.97;;;4.50;;
4575;SDS011;2300;51.874;8.430;2023-02-24T09:14:09;17.63;;;4.60;;
4575;SDS011;2300;51.874;8.430;2023-02-24T09:16:40;12.73;;;3.97;;
4575;SDS011;2300;51.874;8.430;2023-02-24T09:19:26;14.17;;;3.87;;
4575;SDS011;2300;51.874;8.430;2023-02-24T09:22:26;15.40;;;4.60;;
4575;SDS011;2300;51.874;8.430;2023-02-24T09:25:07;11.50;;;4.40;;
4575;SDS011;2300;51.874;8.430;2023-02-24T09:27:46;11.37;;;4.23;;
4575;SDS011;2300;51.874;8.430;2023-02-24T09:30:16;12.70;;;4.23;;
4575;SDS011;2300;51.874;8.430;2023-02-24T09:33:09;17.33;;;4.37;;
4575;SDS011;2300;51.874;8.430;2023-02-24T09:35:49;19.10;;;4.53;;
4575;SDS011;2300;51.874;8.430;2023-02-24T09:38:19;22.23;;;4.80;;
4575;SDS011;2300;51.874;8.430;2023-02-24T09:41:10;11.10;;;4.30;;
4575;SDS011;2300;51.874;8.430;2023-02-24T09:43:55;11.70;;;4.07;;
4575;SDS011;2300;51.874;8.430;2023-02-24T09:46:27;11.83;;;4.20;;
4575;SDS011;2300;51.874;8.430;2023-02-24T09:48:59;13.20;;;5.07;;
4575;SDS011;2300;51.874;8.430;2023-02-24T09:51:33;13.03;;;5.73;;
4575;SDS011;2300;51.874;8.430;2023-02-24T09:54:07;20.10;;;5.87;;
4575;SDS011;2300;51.874;8.430;2023-02-24T09:56:41;15.77;;;5.73;;
4575;SDS011;2300;51.874;8.430;2023-02-24T09:59:21;14.97;;;4.90;;
4575;SDS011;2300;51.874;8.430;2023-02-24T10:01:55;15.97;;;6.63;;
4575;SDS011;2300;51.874;8.430;2023-02-24T10:04:32;13.33;;;5.37;;
4575;SDS011;2300;51.874;8.430;2023-02-24T10:07:13;12.97;;;5.07;;
4575;SDS011;2300;51.874;8.430;2023-02-24T10:09:42;16.43;;;4.73;;
4575;SDS011;2300;51.874;8.430;2023-02-24T10:12:13;15.80;;;6.23;;
4575;SDS011;2300;51.874;8.430;2023-02-24T10:14:45;16.63;;;6.57;;
4575;SDS011;2300;51.874;8.430;2023-02-24T10:17:17;22.00;;;7.37;;
4575;SDS011;2300;51.874;8.430;2023-02-24T10:19:48;19.07;;;5.87;;
4575;SDS011;2300;51.874;8.430;2023-02-24T10:22:21;14.73;;;5.33;;
4575;SDS011;2300;51.874;8.430;2023-02-24T10:25:00;13.17;;;6.00;;
4575;SDS011;2300;51.874;8.430;2023-02-24T10:27:39;20.73;;;6.00;;
4575;SDS011;2300;51.874;8.430;2023-02-24T10:30:21;15.10;;;6.70;;
4575;SDS011;2300;51.874;8.430;2023-02-24T10:33:05;20.60;;;7.20;;
4575;SDS011;2300;51.874;8.430;2023-02-24T10:35:42;15.23;;;7.60;;
4575;SDS011;2300;51.874;8.430;2023-02-24T10:38:09;18.37;;;7.60;;
4575;SDS011;2300;51.874;8.430;2023-02-24T10:40:42;19.27;;;8.40;;
4575;SDS011;2300;51.874;8.430;2023-02-24T10:43:16;20.57;;;8.30;;
4575;SDS011;2300;51.874;8.430;2023-02-24T10:45:44;20.07;;;8.30;;
4575;SDS011;2300;51.874;8.430;2023-02-24T10:48:16;17.03;;;8.87;;
4575;SDS011;2300;51.874;8.430;2023-02-24T10:50:49;20.57;;;9.77;;
4575;SDS011;2300;51.874;8.430;2023-02-24T10:53:18;21.43;;;9.30;;
4575;SDS011;2300;51.874;8.430;2023-02-24T10:55:58;19.73;;;10.20;;
4575;SDS011;2300;51.874;8.430;2023-02-24T10:58:59;24.33;;;11.10;;
4575;SDS011;2300;51.874;8.430;2023-02-24T11:01:41;28.30;;;11.80;;
4575;SDS011;2300;51.874;8.430;2023-02-24T11:04:19;26.23;;;11.63;;
4575;SDS011;2300;51.874;8.430;2023-02-24T11:07:10;29.07;;;11.53;;
4575;SDS011;2300;51.874;8.430;2023-02-24T11:09:48;25.40;;;12.10;;
4575;SDS011;2300;51.874;8.430;2023-02-24T11:12:35;24.27;;;13.53;;
4575;SDS011;2300;51.874;8.430;2023-02-24T11:15:25;27.87;;;12.97;;
4575;SDS011;2300;51.874;8.430;2023-02-24T11:18:15;30.90;;;14.43;;
4575;SDS011;2300;51.874;8.430;2023-02-24T11:20:45;23.90;;;14.43;;
4575;SDS011;2300;51.874;8.430;2023-02-24T11:23:13;24.83;;;14.57;;
4575;SDS011;2300;51.874;8.430;2023-02-24T11:25:45;25.67;;;13.70;;
4575;SDS011;2300;51.874;8.430;2023-02-24T11:28:15;26.73;;;15.53;;
4575;SDS011;2300;51.874;8.430;2023-02-24T11:30:58;24.17;;;14.53;;
4575;SDS011;2300;51.874;8.430;2023-02-24T11:33:35;24.33;;;15.87;;
4575;SDS011;2300;51.874;8.430;2023-02-24T11:36:08;29.00;;;16.97;;
4575;SDS011;2300;51.874;8.430;2023-02-24T11:38:42;27.43;;;17.13;;
4575;SDS011;2300;51.874;8.430;2023-02-24T11:41:16;35.40;;;18.20;;
4575;SDS011;2300;51.874;8.430;2023-02-24T11:43:48;26.20;;;16.43;;
4575;SDS011;2300;51.874;8.430;2023-02-24T11:46:24;32.00;;;18.10;;
4575;SDS011;2300;51.874;8.430;2023-02-24T11:49:00;31.00;;;18.27;;
4575;SDS011;2300;51.874;8.430;2023-02-24T11:51:34;29.50;;;18.53;;
4575;SDS011;2300;51.874;8.430;2023-02-24T11:54:03;26.83;;;17.27;;
4575;SDS011;2300;51.874;8.430;2023-02-24T11:56:35;24.83;;;17.43;;
4575;SDS011;2300;51.874;8.430;2023-02-24T11:59:09;30.53;;;15.20;;
4575;SDS011;2300;51.874;8.430;2023-02-24T12:01:44;27.30;;;14.73;;
4575;SDS011;2300;51.874;8.430;2023-02-24T12:04:16;22.53;;;13.20;;
4575;SDS011;2300;51.874;8.430;2023-02-24T12:06:47;29.30;;;14.27;;
4575;SDS011;2300;51.874;8.430;2023-02-24T12:09:21;20.07;;;13.77;;
4575;SDS011;2300;51.874;8.430;2023-02-24T12:11:51;22.30;;;13.17;;
4575;SDS011;2300;51.874;8.430;2023-02-24T12:14:25;22.40;;;14.30;;
4575;SDS011;2300;51.874;8.430;2023-02-24T12:17:03;30.30;;;16.90;;
4575;SDS011;2300;51.874;8.430;2023-02-24T12:19:44;24.20;;;15.57;;
4575;SDS011;2300;51.874;8.430;2023-02-24T12:22:16;26.60;;;15.40;;
4575;SDS011;2300;51.874;8.430;2023-02-24T12:24:44;24.13;;;15.30;;
4575;SDS011;2300;51.874;8.430;2023-02-24T12:27:14;25.93;;;15.50;;
4575;SDS011;2300;51.874;8.430;2023-02-24T12:29:56;30.53;;;15.40;;
4575;SDS011;2300;51.874;8.430;2023-02-24T12:32:38;24.03;;;14.20;;
4575;SDS011;2300;51.874;8.430;2023-02-24T12:35:17;25.70;;;14.90;;
4575;SDS011;2300;51.874;8.430;2023-02-24T12:37:57;22.07;;;14.77;;
4575;SDS011;2300;51.874;8.430;2023-02-24T12:40:34;28.67;;;14.93;;
4575;SDS011;2300;51.874;8.430;2023-02-24T12:43:12;21.00;;;14.70;;
4575;SDS011;2300;51.874;8.430;2023-02-24T12:45:49;24.13;;;16.17;;
4575;SDS011;2300;51.874;8.430;2023-02-24T12:48:26;29.17;;;16.63;;
4575;SDS011;2300;51.874;8.430;2023-02-24T12:51:04;31.20;;;16.63;;
4575;SDS011;2300;51.874;8.430;2023-02-24T12:53:35;25.87;;;16.93;;
4575;SDS011;2300;51.874;8.430;2023-02-24T12:56:10;26.83;;;17.90;;
4575;SDS011;2300;51.874;8.430;2023-02-24T12:58:45;30.33;;;17.87;;
4575;SDS011;2300;51.874;8.430;2023-02-24T13:01:18;32.07;;;19.57;;
4575;SDS011;2300;51.874;8.430;2023-02-24T13:04:02;29.73;;;18.83;;
4575;SDS011;2300;51.874;8.430;2023-02-24T13:06:44;30.77;;;20.23;;
4575;SDS011;2300;51.874;8.430;2023-02-24T13:09:20;25.70;;;18.00;;
4575;SDS011;2300;51.874;8.430;2023-02-24T13:11:54;30.93;;;20.30;;
4575;SDS011;2300;51.874;8.430;2023-02-24T13:14:25;29.40;;;20.80;;
4575;SDS011;2300;51.874;8.430;2023-02-24T13:17:04;29.43;;;20.33;;
4575;SDS011;2300;51.874;8.430;2023-02-24T13:19:43;32.17;;;21.30;;
4575;SDS011;2300;51.874;8.430;2023-02-24T13:22:18;36.30;;;23.07;;
4575;SDS011;2300;51.874;8.430;2023-02-24T13:24:54;31.00;;;21.83;;
4575;SDS011;2300;51.874;8.430;2023-02-24T13:27:24;37.20;;;23.30;;
4575;SDS011;2300;51.874;8.430;2023-02-24T13:29:52;37.07;;;23.53;;
4575;SDS011;2300;51.874;8.430;2023-02-24T13:32:27;32.63;;;24.00;;
4575;SDS011;2300;51.874;8.430;2023-02-24T13:34:59;38.37;;;23.87;;
4575;SDS011;2300;51.874;8.430;2023-02-24T13:37:31;36.63;;;24.80;;
4575;SDS011;2300;51.874;8.430;2023-02-24T13:40:11;42.53;;;27.07;;
4575;SDS011;2300;51.874;8.430;2023-02-24T13:42:55;36.97;;;26.27;;
4575;SDS011;2300;51.874;8.430;2023-02-24T13:45:24;40.87;;;27.07;;
4575;SDS011;2300;51.874;8.430;2023-02-24T13:48:06;38.27;;;26.07;;
4575;SDS011;2300;51.874;8.430;2023-02-24T13:50:53;38.63;;;26.37;;
4575;SDS011;2300;51.874;8.430;2023-02-24T13:53:31;38.70;;;27.63;;
4575;SDS011;2300;51.874;8.430;2023-02-24T13:56:18;36.43;;;25.50;;
4575;SDS011;2300;51.874;8.430;2023-02-24T13:59:02;37.90;;;27.33;;
4575;SDS011;2300;51.874;8.430;2023-02-24T14:01:44;40.70;;;27.43;;
4575;SDS011;2300;51.874;8.430;2023-02-24T14:04:16;38.37;;;26.43;;
4575;SDS011;2300;51.874;8.430;2023-02-24T14:06:49;38.83;;;26.43;;
4575;SDS011;2300;51.874;8.430;2023-02-24T14:09:20;39.40;;;26.37;;
4575;SDS011;2300;51.874;8.430;2023-02-24T14:11:50;39.07;;;26.27;;
4575;SDS011;2300;51.874;8.430;2023-02-24T14:14:19;40.90;;;24.83;;
4575;SDS011;2300;51.874;8.430;2023-02-24T14:16:47;33.73;;;26.40;;
4575;SDS011;2300;51.874;8.430;2023-02-24T14:19:16;56.47;;;35.90;;
4575;SDS011;2300;51.874;8.430;2023-02-24T14:21:46;35.73;;;26.63;;
4575;SDS011;2300;51.874;8.430;2023-02-24T14:24:17;37.87;;;26.10;;
4575;SDS011;2300;51.874;8.430;2023-02-24T14:26:45;34.97;;;26.17;;
4575;SDS011;2300;51.874;8.430;2023-02-24T14:29:17;36.83;;;28.17;;
4575;SDS011;2300;51.874;8.430;2023-02-24T14:31:46;38.37;;;27.07;;
4575;SDS011;2300;51.874;8.430;2023-02-24T14:34:15;35.47;;;26.50;;
4575;SDS011;2300;51.874;8.430;2023-02-24T14:36:44;35.37;;;27.17;;
4575;SDS011;2300;51.874;8.430;2023-02-24T14:39:15;37.83;;;27.00;;
4575;SDS011;2300;51.874;8.430;2023-02-24T14:41:44;41.47;;;26.87;;
4575;SDS011;2300;51.874;8.430;2023-02-24T14:44:17;36.17;;;28.13;;
4575;SDS011;2300;51.874;8.430;2023-02-24T14:46:45;37.63;;;27.73;;
4575;SDS011;2300;51.874;8.430;2023-02-24T14:49:14;39.10;;;27.20;;
4575;SDS011;2300;51.874;8.430;2023-02-24T14:51:44;34.60;;;27.27;;
4575;SDS011;2300;51.874;8.430;2023-02-24T14:54:17;35.40;;;27.10;;
4575;SDS011;2300;51.874;8.430;2023-02-24T14:56:48;36.77;;;27.40;;
4575;SDS011;2300;51.874;8.430;2023-02-24T14:59:15;36.50;;;26.87;;
4575;SDS011;2300;51.874;8.430;2023-02-24T15:01:54;36.83;;;27.53;;
4575;SDS011;2300;51.874;8.430;2023-02-24T15:04:24;36.27;;;26.97;;
4575;SDS011;2300;51.874;8.430;2023-02-24T15:06:57;40.57;;;27.73;;
4575;SDS011;2300;51.874;8.430;2023-02-24T15:09:28;42.10;;;28.20;;
4575;SDS011;2300;51.874;8.430;2023-02-24T15:12:06;41.43;;;28.07;;
4575;SDS011;2300;51.874;8.430;2023-02-24T15:14:35;35.73;;;27.73;;
4575;SDS011;2300;51.874;8.430;2023-02-24T15:17:06;43.93;;;29.03;;
4575;SDS011;2300;51.874;8.430;2023-02-24T15:19:35;39.77;;;28.17;;
4575;SDS011;2300;51.874;8.430;2023-02-24T15:22:16;37.13;;;29.23;;
4575;SDS011;2300;51.874;8.430;2023-02-24T15:24:45;39.47;;;29.40;;
4575;SDS011;2300;51.874;8.430;2023-02-24T15:27:19;43.80;;;29.03;;
4575;SDS011;2300;51.874;8.430;2023-02-24T15:29:58;45.03;;;30.47;;
4575;SDS011;2300;51.874;8.430;2023-02-24T15:32:28;43.30;;;29.47;;
4575;SDS011;2300;51.874;8.430;2023-02-24T15:34:57;43.83;;;28.67;;